createdAt,value
2017-09-13T00:01:10.261Z,72.30
2017-09-13T00:03:48.821Z,72.12
2017-09-13T00:06:25.614Z,72.10
2017-09-13T00:09:05.058Z,72.01
2017-09-13T00:14:31.951Z,71.98
2017-09-13T00:17:05.679Z,72.04
2017-09-13T00:19:39.208Z,72.13
2017-09-13T00:22:18.532Z,72.35
2017-09-13T00:27:53.565Z,72.49
2017-09-13T00:30:25.739Z,72.68
2017-09-13T00:32:57.082Z,72.93
2017-09-13T00:38:23.964Z,73.15
2017-09-13T00:41:16.868Z,73.00
2017-09-13T00:43:57.185Z,72.85
2017-09-13T00:49:25.579Z,72.57
2017-09-13T00:52:14.197Z,72.34
2017-09-13T00:54:47.035Z,72.40
2017-09-13T00:57:27.675Z,72.52
2017-09-13T01:00:11.759Z,72.63
2017-09-13T01:02:44.746Z,72.49
2017-09-13T01:05:30.813Z,72.43
2017-09-13T01:08:17.931Z,72.32
2017-09-13T01:10:49.975Z,72.24
2017-09-13T01:13:24.463Z,72.20
2017-09-13T01:15:57.670Z,71.99
2017-09-13T01:18:29.606Z,71.91
2017-09-13T01:21:02.049Z,72.05
2017-09-13T01:23:33.905Z,71.94
2017-09-13T01:26:07.849Z,71.94
2017-09-13T01:28:40.576Z,71.78
2017-09-13T01:31:13.133Z,71.44
2017-09-13T01:33:46.590Z,71.33
2017-09-13T01:36:22.301Z,71.12
2017-09-13T01:38:54.254Z,71.16
2017-09-13T01:41:26.361Z,71.04
2017-09-13T01:43:58.469Z,71.07
2017-09-13T01:46:30.670Z,71.18
2017-09-13T01:49:03.284Z,71.14
2017-09-13T01:51:37.563Z,70.92
2017-09-13T01:54:14.967Z,70.96
2017-09-13T01:56:48.954Z,71.06
2017-09-13T01:59:22.119Z,71.08
2017-09-13T02:01:54.265Z,70.83
2017-09-13T02:04:25.622Z,70.70
2017-09-13T02:06:57.716Z,70.53
2017-09-13T02:09:29.551Z,70.19
2017-09-13T02:12:02.921Z,70.08
2017-09-13T02:14:35.340Z,69.92
2017-09-13T02:17:07.832Z,69.68
2017-09-13T02:19:41.538Z,69.70
2017-09-13T02:22:18.290Z,69.74
2017-09-13T02:24:50.720Z,69.73
2017-09-13T02:27:23.258Z,69.72
2017-09-13T02:29:56.160Z,70.03
2017-09-13T02:32:28.545Z,69.76
2017-09-13T02:35:12.786Z,69.53
2017-09-13T02:37:45.758Z,69.54
2017-09-13T02:43:33.860Z,69.01
2017-09-13T02:46:41.667Z,68.80
2017-09-13T02:49:19.359Z,68.76
2017-09-13T02:51:53.023Z,68.64
2017-09-13T02:54:25.137Z,68.62
2017-09-13T02:56:57.168Z,68.74
2017-09-13T02:59:29.121Z,68.69
2017-09-13T03:02:07.061Z,68.56
2017-09-13T03:04:40.806Z,68.53
2017-09-13T03:07:12.833Z,68.33
2017-09-13T03:09:45.388Z,68.43
2017-09-13T03:12:16.697Z,68.24
2017-09-13T03:14:49.612Z,68.04
2017-09-13T03:17:32.723Z,67.86
2017-09-13T03:20:07.895Z,67.90
2017-09-13T03:22:47.969Z,67.85
2017-09-13T03:25:31.238Z,67.89
2017-09-13T03:28:05.876Z,67.67
2017-09-13T03:31:50.857Z,67.26
2017-09-13T03:34:22.245Z,67.12
2017-09-13T03:36:55.467Z,67.19
2017-09-13T03:39:27.368Z,67.29
2017-09-13T03:42:05.395Z,66.93
2017-09-13T03:44:57.121Z,66.92
2017-09-13T03:47:29.169Z,66.73
2017-09-13T03:50:07.616Z,66.62
2017-09-13T03:55:33.536Z,66.57
2017-09-13T03:58:10.149Z,66.81
2017-09-13T04:00:43.330Z,66.49
2017-09-13T04:03:25.784Z,66.49
2017-09-13T04:05:58.286Z,66.43
2017-09-13T04:08:45.379Z,65.95
2017-09-13T04:13:52.531Z,65.66
2017-09-13T04:16:29.964Z,65.42
2017-09-13T04:19:02.220Z,65.05
2017-09-13T04:21:35.149Z,64.62
2017-09-13T04:24:25.796Z,64.52
2017-09-13T04:26:56.908Z,64.49
2017-09-13T04:29:29.046Z,64.35
2017-09-13T04:32:00.135Z,64.37
2017-09-13T04:36:13.174Z,64.19
2017-09-13T04:38:55.140Z,63.78
2017-09-13T04:41:32.572Z,63.59
2017-09-13T04:44:06.883Z,63.07
2017-09-13T04:46:39.264Z,62.86
2017-09-13T04:49:17.616Z,62.73
2017-09-13T04:52:06.231Z,62.56
2017-09-13T04:54:38.302Z,62.16
2017-09-13T04:57:10.965Z,61.87
2017-09-13T04:59:44.016Z,61.85
2017-09-13T05:02:22.127Z,61.58
2017-09-13T05:04:56.721Z,61.58
2017-09-13T05:08:31.554Z,61.82
2017-09-13T05:11:03.082Z,61.54
2017-09-13T05:13:38.312Z,61.28
2017-09-13T05:16:20.324Z,60.48
2017-09-13T05:18:51.522Z,60.43
2017-09-13T05:23:05.445Z,60.47
2017-09-13T05:25:37.458Z,60.44
2017-09-13T05:28:12.053Z,60.44
2017-09-13T05:30:50.924Z,60.91
2017-09-13T05:33:28.147Z,61.24
2017-09-13T05:36:00.895Z,61.81
2017-09-13T05:38:32.428Z,62.46
2017-09-13T05:41:03.750Z,62.91
2017-09-13T05:43:37.106Z,63.17
2017-09-13T05:47:18.852Z,63.38
2017-09-13T05:49:51.536Z,63.98
2017-09-13T05:52:27.457Z,64.19
2017-09-13T05:57:57.365Z,65.30
2017-09-13T06:03:30.204Z,66.63
2017-09-13T06:06:12.102Z,66.81
2017-09-13T06:08:51.594Z,67.14
2017-09-13T06:11:25.074Z,67.49
2017-09-13T06:17:05.851Z,68.86
2017-09-13T06:19:37.253Z,69.73
2017-09-13T06:22:15.068Z,70.09
2017-09-13T06:24:46.555Z,71.13
2017-09-13T06:27:28.387Z,71.67
2017-09-13T06:29:59.738Z,71.51
2017-09-13T06:35:29.589Z,72.54
2017-09-13T06:38:01.065Z,72.33
2017-09-13T06:40:32.521Z,72.17
2017-09-13T06:43:04.962Z,71.86
2017-09-13T06:46:59.993Z,71.30
2017-09-13T06:52:32.230Z,70.23
2017-09-13T06:55:22.603Z,70.19
2017-09-13T06:57:54.874Z,69.82
2017-09-13T07:00:27.292Z,69.92
2017-09-13T07:02:58.624Z,70.36
2017-09-13T07:05:34.357Z,70.70
2017-09-13T07:08:07.091Z,70.86
2017-09-13T07:10:38.424Z,71.61
2017-09-13T07:16:06.148Z,72.10
2017-09-13T07:18:39.593Z,72.58
2017-09-13T07:21:31.646Z,72.73
2017-09-13T07:24:05.315Z,72.72
2017-09-13T07:26:36.706Z,72.57
2017-09-13T07:32:04.897Z,72.31
2017-09-13T07:34:38.070Z,72.01
2017-09-13T07:37:09.183Z,72.49
2017-09-13T07:39:42.261Z,73.07
2017-09-13T07:42:14.571Z,73.99
2017-09-13T07:44:47.070Z,74.03
2017-09-13T07:47:28.114Z,74.05
2017-09-13T07:52:55.298Z,74.08
2017-09-13T07:55:29.427Z,73.18
2017-09-13T07:58:01.115Z,72.18
2017-09-13T08:01:22.507Z,71.64
2017-09-13T08:03:56.646Z,70.74
2017-09-13T08:06:28.593Z,70.33
2017-09-13T08:09:01.576Z,70.09
2017-09-13T08:11:33.023Z,69.96
2017-09-13T08:15:11.189Z,69.57
2017-09-13T08:17:47.147Z,70.04
2017-09-13T08:20:19.512Z,69.84
2017-09-13T08:22:51.738Z,69.04
2017-09-13T08:25:24.370Z,68.14
2017-09-13T08:27:57.713Z,68.08
2017-09-13T08:30:28.879Z,68.30
2017-09-13T08:33:00.156Z,68.52
2017-09-13T08:35:32.485Z,69.40
2017-09-13T08:38:06.106Z,68.85
2017-09-13T08:40:45.674Z,69.32
2017-09-13T08:44:52.401Z,69.25
2017-09-13T08:50:20.177Z,67.03
2017-09-13T08:52:53.134Z,66.00
2017-09-13T08:55:25.673Z,64.95
2017-09-13T08:57:58.297Z,64.31
2017-09-13T09:07:52.417Z,62.30
2017-09-13T09:10:23.837Z,60.99
2017-09-13T09:12:55.221Z,60.54
2017-09-13T09:15:26.720Z,59.60
2017-09-13T09:18:00.181Z,59.14
2017-09-13T09:20:37.601Z,60.08
2017-09-13T09:23:11.951Z,59.64
2017-09-13T09:28:39.850Z,57.29
2017-09-13T09:31:12.642Z,57.09
2017-09-13T09:36:41.639Z,57.51
2017-09-13T09:39:15.304Z,57.02
2017-09-13T09:45:16.026Z,59.74
2017-09-13T09:50:41.927Z,61.56
2017-09-13T09:53:14.053Z,61.41
2017-09-13T09:58:47.454Z,61.64
2017-09-13T10:01:18.690Z,61.03
2017-09-13T10:03:51.003Z,60.88
2017-09-13T10:06:22.441Z,60.74
2017-09-13T10:08:58.413Z,60.84
2017-09-13T10:11:32.589Z,60.97
2017-09-13T10:15:10.505Z,60.33
2017-09-13T10:17:46.541Z,59.92
2017-09-13T10:20:18.434Z,59.94
2017-09-13T10:22:51.513Z,60.31
2017-09-13T10:25:23.743Z,60.51
2017-09-13T10:27:57.406Z,60.77
2017-09-13T10:30:29.044Z,60.95
2017-09-13T10:33:00.142Z,60.95
2017-09-13T10:36:25.592Z,61.37
2017-09-13T10:38:56.969Z,61.18
2017-09-13T10:41:29.830Z,61.77
2017-09-13T10:44:03.856Z,62.13
2017-09-13T10:46:35.089Z,61.95
2017-09-13T10:49:07.389Z,61.28
2017-09-13T10:51:38.943Z,61.22
2017-09-13T10:54:14.976Z,60.87
2017-09-13T10:56:50.432Z,60.34
2017-09-13T10:59:26.174Z,60.11
2017-09-13T11:01:58.740Z,59.79
2017-09-13T11:04:47.331Z,59.61
2017-09-13T11:07:20.571Z,59.59
2017-09-13T11:09:52.002Z,59.39
2017-09-13T11:12:31.295Z,59.07
2017-09-13T11:15:02.735Z,58.55
2017-09-13T11:18:45.211Z,58.57
2017-09-13T11:21:16.575Z,58.02
2017-09-13T11:23:48.589Z,57.54
2017-09-13T11:26:38.980Z,57.25
2017-09-13T11:29:10.812Z,56.86
2017-09-13T11:31:53.650Z,56.32
2017-09-13T11:34:27.503Z,55.08
2017-09-13T11:39:54.068Z,51.98
2017-09-13T11:42:25.669Z,50.51
2017-09-13T11:45:09.707Z,50.04
2017-09-13T11:47:53.290Z,46.04
2017-09-13T11:53:24.178Z,48.48
2017-09-13T11:55:57.146Z,48.32
2017-09-13T11:58:28.393Z,49.42
2017-09-13T12:01:03.269Z,49.47
2017-09-13T12:03:34.676Z,49.34
2017-09-13T12:06:16.342Z,49.27
2017-09-13T12:08:50.058Z,48.75
2017-09-13T12:11:22.065Z,48.83
2017-09-13T12:13:56.102Z,48.48
2017-09-13T12:19:23.608Z,49.26
2017-09-13T12:22:01.464Z,48.90
2017-09-13T12:27:16.059Z,49.11
2017-09-13T12:29:50.731Z,48.56
2017-09-13T12:32:23.534Z,48.78
2017-09-13T12:34:55.429Z,50.36
2017-09-13T12:37:26.911Z,50.34
2017-09-13T12:39:58.605Z,49.91
2017-09-13T12:42:29.878Z,50.93
2017-09-13T12:45:01.674Z,53.82
2017-09-13T12:47:52.369Z,54.02
2017-09-13T12:50:37.608Z,54.26
2017-09-13T12:53:10.572Z,56.65
2017-09-13T12:55:51.442Z,57.23
2017-09-13T12:58:27.138Z,57.90
2017-09-13T13:00:58.503Z,59.48
2017-09-13T13:06:22.858Z,60.52
2017-09-13T13:09:11.969Z,61.89
2017-09-13T13:14:44.516Z,64.09
2017-09-13T13:17:15.703Z,64.43
2017-09-13T13:22:39.763Z,65.89
2017-09-13T13:25:11.009Z,66.23
2017-09-13T13:30:38.155Z,67.27
2017-09-13T13:33:12.375Z,67.38
2017-09-13T13:35:48.336Z,67.78
2017-09-13T13:38:21.111Z,68.33
2017-09-13T13:40:53.011Z,68.17
2017-09-13T13:43:28.284Z,68.46
2017-09-13T13:46:09.897Z,68.59
2017-09-13T13:48:43.038Z,68.63
2017-09-13T13:51:14.390Z,68.34
2017-09-13T13:53:48.042Z,68.08
2017-09-13T13:56:19.855Z,67.40
2017-09-13T13:58:51.380Z,66.84
2017-09-13T14:01:40.654Z,66.80
2017-09-13T14:04:14.562Z,66.71
2017-09-13T14:06:58.960Z,66.48
2017-09-13T14:09:31.137Z,66.57
2017-09-13T14:12:05.323Z,67.00
2017-09-13T14:14:37.648Z,66.79
2017-09-13T14:17:10.478Z,67.04
2017-09-13T14:19:44.336Z,67.05
2017-09-13T14:22:15.684Z,66.96
2017-09-13T14:24:49.448Z,66.89
2017-09-13T14:27:21.355Z,66.88
2017-09-13T14:29:58.381Z,66.95
2017-09-13T14:32:29.620Z,66.93
2017-09-13T14:37:56.284Z,66.66
2017-09-13T14:40:27.598Z,66.90
2017-09-13T14:45:58.062Z,67.20
2017-09-13T14:48:31.955Z,67.76
2017-09-13T14:51:08.975Z,68.07
2017-09-13T14:53:40.559Z,68.68
2017-09-13T14:56:14.027Z,69.04
2017-09-13T14:58:49.359Z,69.45
2017-09-13T15:01:20.999Z,69.54
2017-09-13T15:03:52.249Z,70.10
2017-09-13T15:06:28.580Z,70.74
2017-09-13T15:08:59.884Z,70.43
2017-09-13T15:11:31.464Z,71.10
2017-09-13T15:14:20.871Z,70.59
2017-09-13T15:16:54.486Z,67.44
2017-09-13T15:19:26.630Z,64.89
2017-09-13T15:21:58.489Z,63.45
2017-09-13T15:27:20.976Z,61.96
2017-09-13T15:29:52.130Z,61.83
2017-09-13T15:32:23.720Z,62.18
2017-09-13T15:35:07.781Z,65.26
2017-09-13T15:37:40.213Z,66.79
2017-09-13T15:40:13.849Z,65.51
2017-09-13T15:42:46.456Z,65.22
2017-09-13T15:45:17.753Z,65.43
2017-09-13T15:47:51.963Z,64.30
2017-09-13T15:50:23.382Z,66.02
2017-09-13T15:52:54.540Z,66.62
2017-09-13T15:55:26.136Z,66.09
2017-09-13T15:57:57.390Z,62.25
2017-09-13T16:00:28.961Z,58.16
2017-09-13T16:03:00.853Z,53.40
2017-09-13T16:08:21.580Z,51.29
2017-09-13T16:10:53.149Z,51.43
2017-09-13T16:13:24.460Z,51.29
2017-09-13T16:15:56.026Z,50.98
2017-09-13T16:18:27.621Z,51.02
2017-09-13T16:20:58.774Z,51.45
2017-09-13T16:23:30.072Z,51.48
2017-09-13T16:26:01.556Z,51.94
2017-09-13T16:28:33.029Z,52.40
2017-09-13T16:31:04.585Z,52.92
2017-09-13T16:33:35.907Z,53.60
2017-09-13T16:36:11.717Z,54.30
2017-09-13T16:38:46.692Z,55.11
2017-09-13T16:41:17.800Z,55.91
2017-09-13T16:43:54.599Z,56.62
2017-09-13T16:46:25.886Z,57.22
2017-09-13T16:48:57.202Z,58.14
2017-09-13T16:51:29.612Z,59.73
2017-09-13T16:54:01.265Z,60.81
2017-09-13T16:56:32.473Z,61.87
2017-09-13T16:59:07.380Z,63.34
2017-09-13T17:01:39.314Z,64.80
2017-09-13T17:07:03.641Z,65.76
2017-09-13T17:09:35.652Z,66.80
2017-09-13T17:12:10.874Z,67.67
2017-09-13T17:16:02.463Z,67.74
2017-09-13T17:18:51.696Z,69.60
2017-09-13T17:21:22.822Z,70.34
2017-09-13T17:23:54.010Z,71.16
2017-09-13T17:26:25.238Z,71.23
2017-09-13T17:28:56.837Z,71.61
2017-09-13T17:31:28.255Z,71.54
2017-09-13T17:33:59.445Z,72.86
2017-09-13T17:36:30.705Z,72.19
2017-09-13T17:39:02.669Z,72.63
2017-09-13T17:41:33.953Z,72.79
2017-09-13T17:44:07.166Z,72.89
2017-09-13T17:46:38.487Z,73.41
2017-09-13T17:49:09.988Z,73.43
2017-09-13T17:57:18.002Z,72.80
2017-09-13T17:59:54.302Z,71.68
2017-09-13T18:02:27.834Z,71.21
2017-09-13T18:04:59.170Z,71.14
2017-09-13T18:10:21.777Z,68.63
2017-09-13T18:12:52.995Z,67.95
2017-09-13T18:24:23.987Z,66.84
2017-09-13T18:29:50.344Z,67.58
2017-09-13T18:32:32.110Z,67.36
2017-09-13T18:35:08.823Z,67.79
2017-09-13T18:40:35.055Z,67.96
2017-09-13T18:43:08.847Z,68.19
2017-09-13T18:45:40.673Z,69.33
2017-09-13T18:51:27.106Z,71.01
2017-09-13T18:56:58.154Z,73.38
2017-09-13T19:05:32.095Z,76.46
2017-09-13T19:11:47.105Z,77.94
2017-09-13T19:14:19.211Z,78.18
2017-09-13T19:17:02.926Z,78.72
2017-09-13T19:19:34.094Z,78.98
2017-09-13T19:22:11.089Z,78.92
2017-09-13T19:24:51.696Z,79.37
2017-09-13T19:27:37.536Z,79.03
2017-09-13T19:30:12.537Z,78.93
2017-09-13T19:32:57.337Z,79.26
2017-09-13T19:35:28.686Z,79.68
2017-09-13T19:38:00.439Z,80.22
2017-09-13T19:40:45.386Z,79.95
2017-09-13T19:48:55.285Z,80.06
2017-09-13T19:51:27.519Z,80.01
2017-09-13T19:56:59.356Z,80.15
2017-09-13T20:02:26.200Z,80.62
2017-09-13T20:16:34.763Z,80.84
2017-09-13T20:19:25.737Z,81.19
2017-09-13T20:22:08.970Z,81.54
2017-09-13T20:30:25.633Z,81.80
2017-09-13T20:39:11.549Z,81.85
2017-09-13T20:41:43.349Z,82.06
2017-09-13T20:52:58.269Z,82.79
2017-09-13T20:55:34.558Z,82.76
2017-09-13T21:09:39.565Z,83.00
2017-09-13T21:12:32.412Z,83.19
2017-09-13T21:15:05.336Z,83.32
2017-09-13T21:17:36.700Z,83.49
2017-09-13T21:20:10.924Z,83.72
2017-09-13T21:26:13.800Z,83.80
2017-09-13T21:31:40.215Z,83.90
2017-09-13T21:34:13.358Z,83.80
2017-09-13T21:40:20.103Z,84.46
2017-09-13T21:42:52.858Z,84.44
2017-09-13T21:51:14.808Z,82.88
2017-09-13T21:53:49.231Z,82.35
2017-09-13T21:56:21.171Z,80.87
2017-09-13T21:58:52.353Z,80.91
2017-09-13T22:04:35.176Z,80.66
2017-09-13T22:08:24.238Z,80.43
2017-09-13T22:10:55.797Z,80.43
2017-09-13T22:16:33.622Z,80.32
2017-09-13T22:22:12.401Z,80.36
2017-09-13T22:24:43.788Z,80.76
2017-09-13T22:27:18.542Z,81.00
2017-09-13T22:29:52.299Z,81.32
2017-09-13T22:35:18.510Z,81.80
2017-09-13T22:37:49.725Z,82.11
2017-09-13T22:40:21.485Z,82.50
2017-09-13T22:42:53.379Z,82.54
2017-09-13T22:45:24.593Z,82.72
2017-09-13T22:47:56.497Z,82.67
2017-09-13T22:50:40.187Z,82.64
2017-09-13T22:53:33.270Z,82.62
2017-09-13T22:59:05.611Z,82.63
2017-09-13T23:04:34.002Z,82.73
2017-09-13T23:12:54.462Z,82.29
2017-09-13T23:15:26.318Z,82.29
2017-09-13T23:26:44.819Z,81.31
2017-09-13T23:29:16.860Z,81.28
2017-09-13T23:34:37.714Z,81.99
2017-09-13T23:37:10.251Z,82.30
2017-09-13T23:40:04.159Z,82.49
2017-09-13T23:45:36.436Z,82.59
2017-09-13T23:48:19.272Z,82.33
2017-09-13T23:50:50.422Z,82.26
2017-09-13T23:53:21.588Z,82.40
